BAW32 VHHH-EGLL
Flight info
| Callsign | BAW32 |
|---|---|
| Flight time | N/A |
| Altitude | 34000 |
| Route | K0943S1040 BEKOL1C BEKOL A461 SHL W22 TEPID W24 OSNOV G586 QP B330 ELKAL W179 IGNAK/K0935S1010 W179 WFX/K0930S1040 W179 OMBON W195 VIDEK/K0928S1010 W195 LAXAL/K0922S1040 W195 IDOPA W197 ANDIM B215 IBANO G470 AKLAS W192 LUPRO/K0909S1100 W192 FKG A368 SARIN/K0904F360 N161 ABDUN/K0900F380 N161 GASBI/N0491F380 N161 LEYLA T916 MATAL DCT REBLO UR317 TBN UM11 CRM UL746 ODERO DCT OPT/N0481F400 DCT TEGRI DCT GAZDA DCT ARSIN DCT PEROL DCT RENKA DCT INBED DCT BOMBI DCT DENUT L608 LOGAN LOGAN2H |
| Aircraft | A35K/H-SBDE1E2E3GHIJ1J3J4J5J6M1M2P2RWXYZ/LB1D1 |
Departure
| Time | 2026-05-04 17:21 |
|---|---|
| Airport | Hong Kong International Airport (VHHH) |
Arrival
| Time | N/A |
|---|---|
| Airport | London Heathrow Airport (EGLL) |
| Time | Latitude | Longitude | Altitude | Speed | Heading |
|---|---|---|---|---|---|
| 2026-05-04 16:48 | 22.31434 | 113.92927 | 38 ft | 0 kts | 161° |
| 2026-05-04 17:07 | 22.31442 | 113.92924 | 38 ft | 3 kts | 161° |
| 2026-05-04 17:08 | 22.31461 | 113.92916 | 36 ft | 3 kts | 161° |
| 2026-05-04 17:08 | 22.31498 | 113.92902 | 35 ft | 3 kts | 170° |
| 2026-05-04 17:08 | 22.31516 | 113.92902 | 36 ft | 3 kts | 210° |
| 2026-05-04 17:09 | 22.31530 | 113.92915 | 36 ft | 3 kts | 246° |
| 2026-05-04 17:09 | 22.31534 | 113.92927 | 35 ft | 2 kts | 251° |
| 2026-05-04 17:09 | 22.31540 | 113.92946 | 32 ft | 2 kts | 251° |
| 2026-05-04 17:10 | 22.31542 | 113.92953 | 32 ft | 0 kts | 251° |
| 2026-05-04 17:12 | 22.31538 | 113.92941 | 32 ft | 6 kts | 251° |
| 2026-05-04 17:13 | 22.31497 | 113.92826 | 38 ft | 6 kts | 250° |
| 2026-05-04 17:14 | 22.31528 | 113.92675 | 38 ft | 9 kts | 297° |
| 2026-05-04 17:14 | 22.31565 | 113.92595 | 38 ft | 15 kts | 296° |
| 2026-05-04 17:14 | 22.31644 | 113.92384 | 38 ft | 15 kts | 262° |
| 2026-05-04 17:15 | 22.31610 | 113.92270 | 38 ft | 17 kts | 252° |
| 2026-05-04 17:15 | 22.31514 | 113.91970 | 38 ft | 22 kts | 251° |
| 2026-05-04 17:16 | 22.31405 | 113.91634 | 38 ft | 25 kts | 251° |
| 2026-05-04 17:16 | 22.31235 | 113.91101 | 38 ft | 25 kts | 251° |
| 2026-05-04 17:17 | 22.31178 | 113.90925 | 38 ft | 25 kts | 251° |
| 2026-05-04 17:17 | 22.31003 | 113.90382 | 38 ft | 26 kts | 251° |
| 2026-05-04 17:18 | 22.30945 | 113.90200 | 38 ft | 26 kts | 251° |
| 2026-05-04 17:18 | 22.30884 | 113.89951 | 38 ft | 7 kts | 311° |
| 2026-05-04 17:19 | 22.31064 | 113.89868 | 36 ft | 16 kts | 342° |
| 2026-05-04 17:19 | 22.31133 | 113.89934 | 36 ft | 11 kts | 69° |
| 2026-05-04 17:20 | 22.31164 | 113.90028 | 36 ft | 37 kts | 71° |
| 2026-05-04 17:20 | 22.31620 | 113.91441 | 38 ft | 156 kts | 71° |
| 2026-05-04 17:20 | 22.31993 | 113.92623 | 610 ft | 156 kts | 73° |
| 2026-05-04 17:21 | 22.32789 | 113.95100 | 1367 ft | 195 kts | 72° |
| 2026-05-04 17:21 | 22.33543 | 113.97949 | 1880 ft | 222 kts | 81° |
| 2026-05-04 17:22 | 22.33794 | 113.99636 | 2255 ft | 231 kts | 86° |
| 2026-05-04 17:22 | 22.33794 | 114.00788 | 2574 ft | 233 kts | 97° |
| 2026-05-04 17:23 | 22.30968 | 114.05033 | 3875 ft | 250 kts | 149° |
| 2026-05-04 17:23 | 22.29458 | 114.06002 | 4372 ft | 254 kts | 151° |
| 2026-05-04 17:23 | 22.26373 | 114.07969 | 5370 ft | 259 kts | 153° |
| 2026-05-04 17:24 | 22.24696 | 114.08649 | 5815 ft | 258 kts | 176° |
| 2026-05-04 17:24 | 22.19101 | 114.08736 | 7133 ft | 276 kts | 174° |
| 2026-05-04 17:25 | 22.17306 | 114.09476 | 7716 ft | 281 kts | 146° |
| 2026-05-04 17:25 | 22.15693 | 114.13277 | 8801 ft | 298 kts | 96° |
| 2026-05-04 17:26 | 22.15464 | 114.17845 | 9805 ft | 308 kts | 95° |
| 2026-05-04 17:26 | 22.15125 | 114.25019 | 10754 ft | 343 kts | 88° |
| 2026-05-04 17:27 | 22.16102 | 114.30270 | 11212 ft | 371 kts | 77° |
| 2026-05-04 17:27 | 22.17340 | 114.35880 | 11612 ft | 397 kts | 77° |
| 2026-05-04 17:28 | 22.19530 | 114.41448 | 11965 ft | 416 kts | 48° |
| 2026-05-04 17:29 | 22.27226 | 114.44765 | 13083 ft | 408 kts | 349° |
| 2026-05-04 17:29 | 22.34675 | 114.40779 | 14266 ft | 407 kts | 334° |
| 2026-05-04 17:30 | 22.43152 | 114.38854 | 15316 ft | 420 kts | 347° |
| 2026-05-04 17:31 | 22.48542 | 114.36776 | 16083 ft | 407 kts | 320° |
| 2026-05-04 17:31 | 22.52535 | 114.29235 | 17056 ft | 392 kts | 273° |
| 2026-05-04 17:32 | 22.52763 | 114.23345 | 17745 ft | 395 kts | 276° |
| 2026-05-04 17:33 | 22.55172 | 114.14806 | 18600 ft | 411 kts | 300° |
| 2026-05-04 17:33 | 22.57099 | 114.12434 | 18864 ft | 421 kts | 314° |
| 2026-05-04 17:34 | 22.64877 | 114.07680 | 19653 ft | 437 kts | 330° |
| 2026-05-04 17:34 | 22.67654 | 114.06314 | 19931 ft | 440 kts | 330° |
| 2026-05-04 17:35 | 22.76079 | 114.02145 | 20727 ft | 445 kts | 329° |
| 2026-05-04 17:35 | 22.81704 | 113.99272 | 21384 ft | 447 kts | 328° |
| 2026-05-04 17:35 | 22.84511 | 113.97824 | 21706 ft | 449 kts | 328° |
| 2026-05-04 17:36 | 22.87342 | 113.96361 | 21984 ft | 451 kts | 328° |
| 2026-05-04 17:36 | 22.90190 | 113.94889 | 22263 ft | 454 kts | 328° |
| 2026-05-04 17:36 | 22.93043 | 113.93416 | 22554 ft | 455 kts | 328° |
| 2026-05-04 17:36 | 22.95904 | 113.91927 | 22854 ft | 457 kts | 328° |
| 2026-05-04 17:37 | 22.98777 | 113.90427 | 23137 ft | 459 kts | 328° |
| 2026-05-04 17:37 | 23.01662 | 113.88920 | 23428 ft | 461 kts | 328° |
| 2026-05-04 17:37 | 23.04527 | 113.87424 | 23683 ft | 463 kts | 328° |
| 2026-05-04 17:37 | 23.07416 | 113.85792 | 23926 ft | 460 kts | 323° |
| 2026-05-04 17:38 | 23.10036 | 113.83828 | 24180 ft | 455 kts | 315° |
| 2026-05-04 17:38 | 23.12402 | 113.81626 | 24448 ft | 454 kts | 312° |
| 2026-05-04 17:38 | 23.14720 | 113.79309 | 24768 ft | 453 kts | 311° |
| 2026-05-04 17:38 | 23.16995 | 113.76946 | 25053 ft | 453 kts | 310° |
| 2026-05-04 17:39 | 23.21523 | 113.72148 | 25649 ft | 456 kts | 310° |
| 2026-05-04 17:39 | 23.23801 | 113.69735 | 25962 ft | 457 kts | 310° |
| 2026-05-04 17:39 | 23.26085 | 113.67324 | 26254 ft | 459 kts | 310° |
| 2026-05-04 17:40 | 23.28384 | 113.64906 | 26567 ft | 461 kts | 310° |
| 2026-05-04 17:40 | 23.30697 | 113.62478 | 26895 ft | 462 kts | 310° |
| 2026-05-04 17:40 | 23.33015 | 113.60046 | 27206 ft | 464 kts | 310° |
| 2026-05-04 17:40 | 23.35347 | 113.57599 | 27508 ft | 466 kts | 310° |
| 2026-05-04 17:41 | 23.37683 | 113.55148 | 27826 ft | 468 kts | 310° |
| 2026-05-04 17:41 | 23.40022 | 113.52690 | 28115 ft | 469 kts | 310° |
| 2026-05-04 17:41 | 23.42377 | 113.50214 | 28414 ft | 471 kts | 309° |
| 2026-05-04 17:41 | 23.44735 | 113.47735 | 28689 ft | 473 kts | 309° |
| 2026-05-04 17:42 | 23.47107 | 113.45240 | 28977 ft | 474 kts | 309° |
| 2026-05-04 17:42 | 23.49470 | 113.42755 | 29419 ft | 472 kts | 309° |
| 2026-05-04 17:42 | 23.51822 | 113.40282 | 29884 ft | 469 kts | 309° |
| 2026-05-04 17:42 | 23.54167 | 113.37816 | 30255 ft | 467 kts | 309° |
| 2026-05-04 17:43 | 23.56497 | 113.35348 | 30557 ft | 466 kts | 309° |
| 2026-05-04 17:43 | 23.58797 | 113.32878 | 30876 ft | 464 kts | 309° |
| 2026-05-04 17:43 | 23.61085 | 113.30406 | 31202 ft | 462 kts | 309° |
| 2026-05-04 17:43 | 23.63357 | 113.27945 | 31512 ft | 460 kts | 309° |
| 2026-05-04 17:44 | 23.65476 | 113.25362 | 31805 ft | 453 kts | 302° |
| 2026-05-04 17:44 | 23.67265 | 113.22567 | 32086 ft | 447 kts | 296° |
| 2026-05-04 17:44 | 23.68717 | 113.19594 | 32354 ft | 443 kts | 292° |
| 2026-05-04 17:44 | 23.70042 | 113.16564 | 32611 ft | 441 kts | 291° |
| 2026-05-04 17:45 | 23.71314 | 113.13522 | 32870 ft | 440 kts | 290° |
| 2026-05-04 17:45 | 23.72559 | 113.10482 | 33144 ft | 438 kts | 290° |
| 2026-05-04 17:45 | 23.73817 | 113.07457 | 33391 ft | 438 kts | 292° |
| 2026-05-04 17:45 | 23.75323 | 113.04551 | 33621 ft | 441 kts | 299° |
| 2026-05-04 17:46 | 23.77175 | 113.01858 | 33814 ft | 446 kts | 306° |
| 2026-05-04 17:46 | 23.79356 | 112.99480 | 33998 ft | 452 kts | 314° |
| 2026-05-04 17:46 | 23.81913 | 112.97414 | 34031 ft | 463 kts | 322° |
| 2026-05-04 17:46 | 23.84798 | 112.95767 | 34077 ft | 475 kts | 330° |
| 2026-05-04 17:47 | 23.91110 | 112.93440 | 34043 ft | 481 kts | 335° |
| 2026-05-04 17:47 | 23.97540 | 112.91391 | 34048 ft | 481 kts | 336° |
| 2026-05-04 17:48 | 24.03959 | 112.89311 | 34047 ft | 481 kts | 335° |
| 2026-05-04 17:48 | 24.10364 | 112.87188 | 34049 ft | 481 kts | 335° |
| 2026-05-04 17:49 | 24.16762 | 112.85054 | 34068 ft | 481 kts | 335° |
| 2026-05-04 17:49 | 24.23158 | 112.82926 | 34066 ft | 481 kts | 335° |
| 2026-05-04 17:50 | 24.29562 | 112.80796 | 34063 ft | 480 kts | 336° |
| 2026-05-04 17:50 | 24.35949 | 112.78676 | 34063 ft | 480 kts | 335° |
| 2026-05-04 17:51 | 24.41982 | 112.75852 | 34069 ft | 463 kts | 321° |
| 2026-05-04 17:51 | 24.46837 | 112.71427 | 34051 ft | 448 kts | 305° |
| 2026-05-04 17:52 | 24.50137 | 112.65750 | 34057 ft | 438 kts | 290° |
| 2026-05-04 17:52 | 24.51707 | 112.59354 | 34043 ft | 433 kts | 275° |
| 2026-05-04 17:53 | 24.51615 | 112.52736 | 34064 ft | 435 kts | 268° |
| 2026-05-04 17:53 | 24.51827 | 112.46114 | 34064 ft | 434 kts | 274° |
| 2026-05-04 17:54 | 24.52378 | 112.39514 | 34066 ft | 434 kts | 275° |
| 2026-05-04 17:54 | 24.53010 | 112.32922 | 34066 ft | 434 kts | 276° |
| 2026-05-04 17:55 | 24.53654 | 112.26323 | 34055 ft | 435 kts | 276° |
| 2026-05-04 17:55 | 24.54288 | 112.19719 | 34053 ft | 434 kts | 276° |
| 2026-05-04 17:56 | 24.54919 | 112.13116 | 34063 ft | 435 kts | 275° |
| 2026-05-04 17:56 | 24.55541 | 112.06512 | 34059 ft | 434 kts | 275° |
| 2026-05-04 17:57 | 24.56157 | 111.99911 | 34065 ft | 434 kts | 275° |
| 2026-05-04 17:57 | 24.56773 | 111.93312 | 34066 ft | 434 kts | 275° |
| 2026-05-04 17:58 | 24.57387 | 111.86710 | 34064 ft | 434 kts | 275° |
| 2026-05-04 17:58 | 24.57998 | 111.80111 | 34063 ft | 434 kts | 275° |
| 2026-05-04 17:59 | 24.58603 | 111.73545 | 34063 ft | 434 kts | 276° |
| 2026-05-04 18:00 | 24.59510 | 111.63643 | 34062 ft | 434 kts | 276° |
| 2026-05-04 18:00 | 24.60110 | 111.57037 | 34056 ft | 433 kts | 275° |
| 2026-05-04 18:01 | 24.60705 | 111.50460 | 34061 ft | 433 kts | 275° |
| 2026-05-04 18:01 | 24.61300 | 111.43864 | 34054 ft | 434 kts | 275° |
| 2026-05-04 18:02 | 24.62189 | 111.33942 | 34058 ft | 434 kts | 275° |
| 2026-05-04 18:02 | 24.62775 | 111.27344 | 34065 ft | 434 kts | 275° |
| 2026-05-04 18:03 | 24.63348 | 111.20733 | 34059 ft | 434 kts | 275° |
| 2026-05-04 18:03 | 24.63915 | 111.14124 | 34058 ft | 434 kts | 275° |
| 2026-05-04 18:04 | 24.64479 | 111.07512 | 34055 ft | 434 kts | 275° |
| 2026-05-04 18:05 | 24.65326 | 110.97585 | 34050 ft | 435 kts | 275° |
| 2026-05-04 18:05 | 24.65886 | 110.90965 | 34048 ft | 435 kts | 275° |
| 2026-05-04 18:06 | 24.67277 | 110.81173 | 34052 ft | 436 kts | 287° |
| 2026-05-04 18:06 | 24.69958 | 110.75182 | 34053 ft | 441 kts | 301° |
| 2026-05-04 18:07 | 24.73370 | 110.70895 | 34047 ft | 448 kts | 310° |
| 2026-05-04 18:07 | 24.77840 | 110.66157 | 34078 ft | 449 kts | 311° |
| 2026-05-04 18:08 | 24.82393 | 110.61444 | 34052 ft | 449 kts | 311° |
| 2026-05-04 18:08 | 24.86912 | 110.56716 | 34049 ft | 448 kts | 311° |
| 2026-05-04 18:09 | 24.95931 | 110.47191 | 34049 ft | 449 kts | 311° |
| 2026-05-04 18:10 | 25.00433 | 110.42428 | 34052 ft | 448 kts | 311° |
| 2026-05-04 18:10 | 25.04934 | 110.37679 | 34052 ft | 448 kts | 311° |
| 2026-05-04 18:11 | 25.09427 | 110.32923 | 34049 ft | 448 kts | 311° |
| 2026-05-04 18:11 | 25.13925 | 110.28165 | 34055 ft | 448 kts | 311° |
| 2026-05-04 18:12 | 25.18410 | 110.23420 | 34050 ft | 446 kts | 311° |
| 2026-05-04 18:12 | 25.22897 | 110.18684 | 34048 ft | 446 kts | 311° |
| 2026-05-04 18:13 | 25.27398 | 110.13974 | 34048 ft | 446 kts | 311° |
| 2026-05-04 18:14 | 25.34155 | 110.06901 | 34051 ft | 446 kts | 311° |
| 2026-05-04 18:14 | 25.38657 | 110.02178 | 34053 ft | 446 kts | 311° |
| 2026-05-04 18:15 | 25.47623 | 109.92768 | 34079 ft | 445 kts | 311° |
| 2026-05-04 18:16 | 25.52109 | 109.88030 | 34063 ft | 446 kts | 311° |
| 2026-05-04 18:16 | 25.56597 | 109.83297 | 34059 ft | 445 kts | 311° |
| 2026-05-04 18:17 | 25.63325 | 109.76188 | 34050 ft | 446 kts | 311° |
| 2026-05-04 18:18 | 25.70081 | 109.69057 | 34052 ft | 446 kts | 311° |
| 2026-05-04 18:18 | 25.74510 | 109.64245 | 34051 ft | 444 kts | 307° |
| 2026-05-04 18:19 | 25.79085 | 109.55556 | 34053 ft | 434 kts | 287° |
| 2026-05-04 18:19 | 25.80876 | 109.49150 | 34048 ft | 435 kts | 285° |
| 2026-05-04 18:20 | 25.82539 | 109.42694 | 34049 ft | 435 kts | 285° |
| 2026-05-04 18:20 | 25.84207 | 109.36241 | 34083 ft | 435 kts | 285° |
| 2026-05-04 18:21 | 25.85883 | 109.29804 | 34053 ft | 432 kts | 285° |
| 2026-05-04 18:21 | 25.87564 | 109.23389 | 34059 ft | 432 kts | 285° |
| 2026-05-04 18:22 | 25.89229 | 109.17029 | 34060 ft | 432 kts | 285° |
| 2026-05-04 18:22 | 25.90899 | 109.10624 | 34064 ft | 432 kts | 285° |
| 2026-05-04 18:23 | 25.92569 | 109.04205 | 34063 ft | 432 kts | 285° |
| 2026-05-04 18:23 | 25.94268 | 108.97800 | 34072 ft | 433 kts | 286° |
| 2026-05-04 18:24 | 25.95976 | 108.91401 | 34071 ft | 432 kts | 286° |
| 2026-05-04 18:24 | 25.97677 | 108.84993 | 34074 ft | 432 kts | 286° |
| 2026-05-04 18:25 | 25.99369 | 108.78598 | 34082 ft | 432 kts | 286° |
| 2026-05-04 18:25 | 26.01062 | 108.72192 | 34079 ft | 432 kts | 286° |
| 2026-05-04 18:26 | 26.02761 | 108.65778 | 34085 ft | 432 kts | 286° |
| 2026-05-04 18:26 | 26.04467 | 108.59374 | 34084 ft | 432 kts | 286° |
| 2026-05-04 18:27 | 26.06169 | 108.52974 | 34086 ft | 431 kts | 286° |
| 2026-05-04 18:27 | 26.07864 | 108.46572 | 34088 ft | 431 kts | 285° |
| 2026-05-04 18:28 | 26.09637 | 108.40197 | 34094 ft | 432 kts | 290° |
| 2026-05-04 18:28 | 26.12095 | 108.34088 | 34094 ft | 433 kts | 294° |
| 2026-05-04 18:29 | 26.14711 | 108.28044 | 34093 ft | 433 kts | 294° |
| 2026-05-04 18:29 | 26.17345 | 108.21998 | 34101 ft | 434 kts | 294° |
| 2026-05-04 18:30 | 26.21262 | 108.12937 | 34103 ft | 433 kts | 294° |
| 2026-05-04 18:31 | 26.23868 | 108.06897 | 34100 ft | 433 kts | 294° |
| 2026-05-04 18:31 | 26.26471 | 108.00850 | 34099 ft | 433 kts | 294° |
| 2026-05-04 18:32 | 26.29057 | 107.94825 | 34101 ft | 433 kts | 294° |
| 2026-05-04 18:32 | 26.31672 | 107.88724 | 34102 ft | 433 kts | 294° |
| 2026-05-04 18:33 | 26.34252 | 107.82704 | 34122 ft | 433 kts | 294° |
| 2026-05-04 18:33 | 26.36832 | 107.76679 | 34105 ft | 429 kts | 294° |
| 2026-05-04 18:34 | 26.39394 | 107.70681 | 34113 ft | 428 kts | 294° |
| 2026-05-04 18:34 | 26.41952 | 107.64686 | 34113 ft | 428 kts | 294° |
| 2026-05-04 18:35 | 26.44507 | 107.58689 | 34123 ft | 428 kts | 294° |
| 2026-05-04 18:35 | 26.47057 | 107.52697 | 34126 ft | 428 kts | 294° |
| 2026-05-04 18:36 | 26.49615 | 107.46692 | 34130 ft | 428 kts | 294° |
| 2026-05-04 18:36 | 26.52152 | 107.40683 | 34108 ft | 428 kts | 294° |
| 2026-05-04 18:37 | 26.54688 | 107.34674 | 34120 ft | 428 kts | 294° |
| 2026-05-04 18:37 | 26.57237 | 107.28666 | 34131 ft | 428 kts | 294° |
| 2026-05-04 18:38 | 26.59777 | 107.22652 | 34132 ft | 428 kts | 294° |
| 2026-05-04 18:38 | 26.62318 | 107.16637 | 34131 ft | 428 kts | 294° |
| 2026-05-04 18:39 | 26.64861 | 107.10629 | 34133 ft | 427 kts | 294° |
| 2026-05-04 18:39 | 26.67415 | 107.04623 | 34137 ft | 428 kts | 294° |
| 2026-05-04 18:40 | 26.69968 | 106.98616 | 34119 ft | 427 kts | 294° |
| 2026-05-04 18:40 | 26.72517 | 106.92604 | 34134 ft | 427 kts | 294° |
| 2026-05-04 18:41 | 26.75056 | 106.86599 | 34149 ft | 427 kts | 294° |
| 2026-05-04 18:41 | 26.77707 | 106.80652 | 34134 ft | 427 kts | 298° |
| 2026-05-04 18:42 | 26.81417 | 106.75430 | 34129 ft | 433 kts | 312° |
| 2026-05-04 18:42 | 26.85895 | 106.70872 | 34120 ft | 436 kts | 314° |
| 2026-05-04 18:43 | 26.90479 | 106.66424 | 34125 ft | 437 kts | 314° |
| 2026-05-04 18:43 | 26.95073 | 106.61967 | 34117 ft | 437 kts | 314° |
| 2026-05-04 18:44 | 26.99656 | 106.57485 | 34106 ft | 436 kts | 314° |
| 2026-05-04 18:44 | 27.04221 | 106.53001 | 34107 ft | 436 kts | 314° |
| 2026-05-04 18:45 | 27.08787 | 106.48508 | 34108 ft | 436 kts | 314° |
| 2026-05-04 18:45 | 27.13350 | 106.44015 | 34100 ft | 435 kts | 313° |
| 2026-05-04 18:46 | 27.17891 | 106.39543 | 34107 ft | 435 kts | 313° |
| 2026-05-04 18:46 | 27.22435 | 106.35075 | 34099 ft | 434 kts | 314° |
| 2026-05-04 18:47 | 27.27003 | 106.30631 | 34093 ft | 435 kts | 314° |
| 2026-05-04 18:47 | 27.31579 | 106.26184 | 34093 ft | 435 kts | 314° |
| 2026-05-04 18:48 | 27.35384 | 106.22480 | 34089 ft | 435 kts | 314° |
| 2026-05-04 18:48 | 27.39953 | 106.18024 | 34080 ft | 435 kts | 314° |
| 2026-05-04 18:49 | 27.45256 | 106.12838 | 34082 ft | 434 kts | 314° |
| 2026-05-04 18:49 | 27.49083 | 106.09096 | 34074 ft | 434 kts | 314° |
| 2026-05-04 18:50 | 27.53647 | 106.04626 | 34076 ft | 434 kts | 314° |
| 2026-05-04 18:50 | 27.58178 | 106.00185 | 34069 ft | 435 kts | 314° |
| 2026-05-04 18:51 | 27.62746 | 105.95700 | 34055 ft | 436 kts | 314° |
| 2026-05-04 18:51 | 27.67320 | 105.91204 | 34055 ft | 436 kts | 314° |
| 2026-05-04 18:52 | 27.71542 | 105.86352 | 34056 ft | 429 kts | 303° |
| 2026-05-04 18:52 | 27.74453 | 105.80551 | 34086 ft | 425 kts | 290° |
| 2026-05-04 18:53 | 27.76362 | 105.74248 | 34047 ft | 424 kts | 288° |
| 2026-05-04 18:53 | 27.78110 | 105.67889 | 34043 ft | 424 kts | 287° |
| 2026-05-04 18:54 | 27.79916 | 105.61553 | 34022 ft | 425 kts | 291° |
| 2026-05-04 18:54 | 27.82195 | 105.55388 | 34027 ft | 426 kts | 292° |
| 2026-05-04 18:55 | 27.84562 | 105.49244 | 34023 ft | 426 kts | 293° |
| 2026-05-04 18:55 | 27.88121 | 105.40076 | 34022 ft | 426 kts | 292° |
| 2026-05-04 18:56 | 27.90618 | 105.33996 | 34019 ft | 426 kts | 295° |
| 2026-05-04 18:56 | 27.93344 | 105.28032 | 33979 ft | 426 kts | 296° |
| 2026-05-04 18:57 | 27.96124 | 105.22084 | 33993 ft | 429 kts | 299° |
| 2026-05-04 18:57 | 27.99805 | 105.16746 | 33985 ft | 435 kts | 311° |
| 2026-05-04 18:58 | 28.04674 | 105.12593 | 33988 ft | 442 kts | 322° |
| 2026-05-04 18:58 | 28.09908 | 105.08908 | 33967 ft | 444 kts | 323° |
| 2026-05-04 18:59 | 28.15185 | 105.05279 | 33965 ft | 443 kts | 323° |
| 2026-05-04 18:59 | 28.20442 | 105.01635 | 33952 ft | 443 kts | 323° |
| 2026-05-04 19:00 | 28.25685 | 104.97967 | 33953 ft | 442 kts | 323° |
| 2026-05-04 19:00 | 28.30921 | 104.94292 | 33947 ft | 442 kts | 323° |
| 2026-05-04 19:01 | 28.36161 | 104.90612 | 33943 ft | 443 kts | 323° |
| 2026-05-04 19:01 | 28.41419 | 104.86922 | 33943 ft | 444 kts | 323° |
| 2026-05-04 19:02 | 28.46677 | 104.83251 | 33943 ft | 444 kts | 323° |
| 2026-05-04 19:02 | 28.51945 | 104.79567 | 33939 ft | 444 kts | 323° |
| 2026-05-04 19:03 | 28.57178 | 104.75902 | 33933 ft | 444 kts | 323° |
| 2026-05-04 19:03 | 28.62444 | 104.72209 | 33938 ft | 444 kts | 323° |
| 2026-05-04 19:04 | 28.67708 | 104.68512 | 33930 ft | 445 kts | 323° |
| 2026-05-04 19:04 | 28.72972 | 104.64813 | 33934 ft | 444 kts | 323° |
| 2026-05-04 19:05 | 28.78231 | 104.61113 | 33934 ft | 444 kts | 323° |
| 2026-05-04 19:05 | 28.83479 | 104.57415 | 33933 ft | 444 kts | 323° |
| 2026-05-04 19:06 | 28.88734 | 104.53707 | 33934 ft | 443 kts | 322° |
| 2026-05-04 19:06 | 28.93964 | 104.49977 | 33937 ft | 443 kts | 322° |
| 2026-05-04 19:07 | 28.99188 | 104.46243 | 33937 ft | 443 kts | 322° |
| 2026-05-04 19:07 | 29.04416 | 104.42509 | 33961 ft | 443 kts | 322° |
| 2026-05-04 19:08 | 29.09615 | 104.38795 | 33937 ft | 443 kts | 322° |
| 2026-05-04 19:08 | 29.14840 | 104.35058 | 33941 ft | 443 kts | 322° |
| 2026-05-04 19:09 | 29.20061 | 104.31321 | 33941 ft | 443 kts | 322° |
| 2026-05-04 19:09 | 29.25700 | 104.28302 | 33942 ft | 455 kts | 336° |
| 2026-05-04 19:10 | 29.32045 | 104.27220 | 33944 ft | 474 kts | 353° |
| 2026-05-04 19:10 | 29.38695 | 104.28011 | 33941 ft | 477 kts | 0° |
| 2026-05-04 19:11 | 29.45197 | 104.29166 | 33950 ft | 473 kts | 1° |
| 2026-05-04 19:11 | 29.51668 | 104.30326 | 33952 ft | 473 kts | 1° |
| 2026-05-04 19:12 | 29.61448 | 104.32011 | 33952 ft | 472 kts | 0° |
| 2026-05-04 19:13 | 29.67901 | 104.33111 | 33955 ft | 467 kts | 1° |
| 2026-05-04 19:13 | 29.74300 | 104.34204 | 33958 ft | 464 kts | 1° |
| 2026-05-04 19:14 | 29.80701 | 104.35296 | 33958 ft | 465 kts | 1° |
| 2026-05-04 19:14 | 29.87104 | 104.36388 | 33961 ft | 465 kts | 1° |
| 2026-05-04 19:15 | 29.93464 | 104.37477 | 33959 ft | 463 kts | 1° |
| 2026-05-04 19:15 | 29.99812 | 104.38569 | 33964 ft | 461 kts | 1° |
| 2026-05-04 19:16 | 30.06156 | 104.39658 | 33965 ft | 461 kts | 1° |
| 2026-05-04 19:16 | 30.12496 | 104.40747 | 33965 ft | 461 kts | 1° |
| 2026-05-04 19:17 | 30.18840 | 104.41849 | 33984 ft | 460 kts | 1° |
| 2026-05-04 19:17 | 30.25164 | 104.42952 | 33968 ft | 458 kts | 1° |
| 2026-05-04 19:18 | 30.31475 | 104.44052 | 33963 ft | 458 kts | 1° |
| 2026-05-04 19:18 | 30.37778 | 104.45152 | 33973 ft | 458 kts | 1° |
| 2026-05-04 19:19 | 30.44081 | 104.46254 | 33969 ft | 458 kts | 1° |
| 2026-05-04 19:19 | 30.50389 | 104.47358 | 33965 ft | 458 kts | 1° |
| 2026-05-04 19:20 | 30.56671 | 104.48394 | 33966 ft | 455 kts | 358° |
| 2026-05-04 19:20 | 30.62883 | 104.48058 | 33961 ft | 441 kts | 343° |
| 2026-05-04 19:21 | 30.68771 | 104.46136 | 33967 ft | 437 kts | 338° |
| 2026-05-04 19:21 | 30.74545 | 104.43917 | 33961 ft | 437 kts | 338° |
| 2026-05-04 19:22 | 30.80308 | 104.41659 | 33959 ft | 437 kts | 338° |
| 2026-05-04 19:22 | 30.86140 | 104.39580 | 33957 ft | 440 kts | 343° |
| 2026-05-04 19:23 | 30.92244 | 104.38850 | 33954 ft | 446 kts | 352° |
| 2026-05-04 19:23 | 30.98471 | 104.38639 | 33954 ft | 448 kts | 353° |
| 2026-05-04 19:24 | 31.04707 | 104.38508 | 33959 ft | 446 kts | 354° |
| 2026-05-04 19:24 | 31.10880 | 104.38369 | 33958 ft | 445 kts | 354° |
| 2026-05-04 19:25 | 31.17078 | 104.38210 | 33956 ft | 445 kts | 354° |
| 2026-05-04 19:25 | 31.23255 | 104.38046 | 33958 ft | 445 kts | 354° |
| 2026-05-04 19:26 | 31.29447 | 104.37829 | 33962 ft | 443 kts | 353° |
| 2026-05-04 19:26 | 31.35575 | 104.37441 | 33957 ft | 441 kts | 352° |
| 2026-05-04 19:27 | 31.41734 | 104.37038 | 33964 ft | 441 kts | 353° |
| 2026-05-04 19:27 | 31.47844 | 104.36665 | 33971 ft | 442 kts | 353° |
| 2026-05-04 19:28 | 31.53987 | 104.36305 | 33991 ft | 441 kts | 353° |
| 2026-05-04 19:28 | 31.60098 | 104.35950 | 33979 ft | 438 kts | 353° |
| 2026-05-04 19:29 | 31.66157 | 104.35599 | 33991 ft | 437 kts | 353° |
| 2026-05-04 19:29 | 31.72245 | 104.35245 | 34004 ft | 437 kts | 353° |
| 2026-05-04 19:30 | 31.78302 | 104.34887 | 34000 ft | 437 kts | 353° |
| 2026-05-04 19:30 | 31.84387 | 104.34562 | 34010 ft | 435 kts | 354° |
| 2026-05-04 19:31 | 31.90380 | 104.34264 | 34008 ft | 432 kts | 354° |
| 2026-05-04 19:31 | 31.96410 | 104.33967 | 34017 ft | 433 kts | 354° |
| 2026-05-04 19:32 | 32.02404 | 104.33661 | 34002 ft | 432 kts | 354° |
| 2026-05-04 19:32 | 32.08430 | 104.33356 | 34018 ft | 433 kts | 354° |
| 2026-05-04 19:33 | 32.14387 | 104.33059 | 34013 ft | 430 kts | 354° |
| 2026-05-04 19:33 | 32.20371 | 104.32747 | 34011 ft | 428 kts | 354° |
| 2026-05-04 19:34 | 32.26301 | 104.32441 | 34014 ft | 428 kts | 354° |
| 2026-05-04 19:34 | 32.32274 | 104.32134 | 34012 ft | 429 kts | 354° |
| 2026-05-04 19:35 | 32.38226 | 104.31821 | 34007 ft | 427 kts | 354° |
| 2026-05-04 19:35 | 32.44176 | 104.31515 | 34006 ft | 427 kts | 354° |
| 2026-05-04 19:36 | 32.50081 | 104.31219 | 34009 ft | 427 kts | 354° |
| 2026-05-04 19:36 | 32.56021 | 104.30938 | 34002 ft | 427 kts | 354° |
| 2026-05-04 19:37 | 32.61934 | 104.30665 | 34008 ft | 427 kts | 355° |
| 2026-05-04 19:37 | 32.67856 | 104.30396 | 34002 ft | 426 kts | 354° |
| 2026-05-04 19:38 | 32.72797 | 104.30150 | 33988 ft | 425 kts | 354° |
| 2026-05-04 19:38 | 32.78712 | 104.29856 | 33989 ft | 425 kts | 354° |
| 2026-05-04 19:39 | 32.84607 | 104.29568 | 33988 ft | 425 kts | 355° |
| 2026-05-04 19:39 | 32.90536 | 104.29301 | 33985 ft | 425 kts | 355° |
| 2026-05-04 19:40 | 32.96420 | 104.29011 | 33979 ft | 425 kts | 355° |
| 2026-05-04 19:40 | 33.02335 | 104.28714 | 33987 ft | 425 kts | 355° |
| 2026-05-04 19:41 | 33.08240 | 104.28421 | 33973 ft | 425 kts | 355° |
| 2026-05-04 19:41 | 33.14176 | 104.28146 | 33981 ft | 426 kts | 355° |
| 2026-05-04 19:42 | 33.20076 | 104.27862 | 33984 ft | 426 kts | 355° |
| 2026-05-04 19:42 | 33.25994 | 104.27555 | 33978 ft | 424 kts | 355° |
| 2026-05-04 19:43 | 33.31898 | 104.27183 | 33967 ft | 423 kts | 351° |
| 2026-05-04 19:43 | 33.37558 | 104.25513 | 33974 ft | 421 kts | 338° |
| 2026-05-04 19:44 | 33.42799 | 104.22343 | 33962 ft | 422 kts | 332° |
| 2026-05-04 19:44 | 33.47910 | 104.18849 | 33966 ft | 424 kts | 331° |
| 2026-05-04 19:45 | 33.53013 | 104.15311 | 33957 ft | 425 kts | 331° |
| 2026-05-04 19:45 | 33.58396 | 104.12373 | 33951 ft | 425 kts | 343° |
| 2026-05-04 19:46 | 33.64206 | 104.11246 | 33949 ft | 429 kts | 355° |
| 2026-05-04 19:46 | 33.70202 | 104.11136 | 33956 ft | 432 kts | 357° |
| 2026-05-04 19:47 | 33.76167 | 104.11164 | 33950 ft | 431 kts | 357° |
| 2026-05-04 19:47 | 33.82168 | 104.11177 | 33928 ft | 430 kts | 357° |
| 2026-05-04 19:48 | 33.88152 | 104.11185 | 33945 ft | 430 kts | 357° |
| 2026-05-04 19:48 | 33.94106 | 104.11206 | 33945 ft | 432 kts | 357° |
| 2026-05-04 19:49 | 34.00095 | 104.11212 | 33932 ft | 430 kts | 356° |
| 2026-05-04 19:49 | 34.06116 | 104.11227 | 33915 ft | 430 kts | 357° |
| 2026-05-04 19:50 | 34.12087 | 104.11213 | 33932 ft | 431 kts | 356° |
| 2026-05-04 19:50 | 34.18105 | 104.11208 | 33933 ft | 431 kts | 356° |
| 2026-05-04 19:51 | 34.24066 | 104.11199 | 33932 ft | 431 kts | 356° |
| 2026-05-04 19:51 | 34.30103 | 104.11194 | 33928 ft | 431 kts | 356° |
| 2026-05-04 19:52 | 34.36085 | 104.11193 | 33935 ft | 431 kts | 356° |
| 2026-05-04 19:52 | 34.42106 | 104.11191 | 33931 ft | 432 kts | 356° |
| 2026-05-04 19:53 | 34.48096 | 104.11190 | 33933 ft | 433 kts | 356° |
| 2026-05-04 19:53 | 34.54124 | 104.11193 | 33926 ft | 433 kts | 356° |
| 2026-05-04 19:54 | 34.60166 | 104.11192 | 33929 ft | 433 kts | 356° |
| 2026-05-04 19:54 | 34.66174 | 104.11187 | 33924 ft | 433 kts | 356° |
| 2026-05-04 19:55 | 34.72210 | 104.11192 | 33917 ft | 433 kts | 356° |
| 2026-05-04 19:55 | 34.78225 | 104.11197 | 33918 ft | 433 kts | 356° |
| 2026-05-04 19:56 | 34.84233 | 104.11199 | 33913 ft | 433 kts | 356° |
| 2026-05-04 19:56 | 34.90283 | 104.11202 | 33913 ft | 434 kts | 356° |
| 2026-05-04 19:57 | 34.96308 | 104.11200 | 33919 ft | 434 kts | 356° |
| 2026-05-04 19:57 | 35.02333 | 104.11208 | 33910 ft | 433 kts | 356° |
| 2026-05-04 19:58 | 35.08385 | 104.11200 | 33913 ft | 434 kts | 356° |
| 2026-05-04 19:58 | 35.14401 | 104.11195 | 33912 ft | 434 kts | 356° |
| 2026-05-04 19:59 | 35.20462 | 104.11192 | 33916 ft | 435 kts | 356° |
| 2026-05-04 19:59 | 35.26490 | 104.11192 | 33918 ft | 436 kts | 356° |
| 2026-05-04 20:00 | 35.32577 | 104.11194 | 33917 ft | 436 kts | 356° |
| 2026-05-04 20:00 | 35.38604 | 104.11195 | 33922 ft | 435 kts | 356° |
| 2026-05-04 20:01 | 35.44688 | 104.11194 | 33924 ft | 436 kts | 356° |
| 2026-05-04 20:01 | 35.50754 | 104.11196 | 33916 ft | 436 kts | 356° |
| 2026-05-04 20:02 | 35.56828 | 104.11220 | 33918 ft | 436 kts | 356° |
| 2026-05-04 20:02 | 35.62877 | 104.11248 | 33913 ft | 436 kts | 356° |
| 2026-05-04 20:03 | 35.68944 | 104.11274 | 33913 ft | 436 kts | 356° |
| 2026-05-04 20:03 | 35.75022 | 104.11299 | 33907 ft | 436 kts | 356° |
| 2026-05-04 20:04 | 35.81097 | 104.11329 | 33911 ft | 436 kts | 356° |
| 2026-05-04 20:04 | 35.87129 | 104.10874 | 33908 ft | 434 kts | 352° |
| 2026-05-04 20:05 | 35.93106 | 104.10240 | 33904 ft | 434 kts | 352° |
| 2026-05-04 20:05 | 35.99138 | 104.09572 | 33904 ft | 435 kts | 352° |
| 2026-05-04 20:06 | 36.05175 | 104.08905 | 33908 ft | 435 kts | 352° |
| 2026-05-04 20:06 | 36.11215 | 104.08241 | 33902 ft | 435 kts | 352° |
| 2026-05-04 20:07 | 36.17219 | 104.07581 | 33910 ft | 436 kts | 351° |
| 2026-05-04 20:07 | 36.23276 | 104.06915 | 33905 ft | 437 kts | 351° |
| 2026-05-04 20:08 | 36.29349 | 104.06255 | 33906 ft | 437 kts | 351° |
| 2026-05-04 20:08 | 36.35403 | 104.05597 | 33911 ft | 437 kts | 351° |
| 2026-05-04 20:09 | 36.41455 | 104.04930 | 33921 ft | 437 kts | 351° |
| 2026-05-04 20:09 | 36.47476 | 104.04250 | 34010 ft | 436 kts | 351° |
| 2026-05-04 20:09 | 36.50482 | 104.03891 | 34181 ft | 432 kts | 351° |
| 2026-05-04 20:10 | 36.53485 | 104.03629 | 34356 ft | 430 kts | 353° |
| 2026-05-04 20:10 | 36.59548 | 104.03888 | 33992 ft | 447 kts | 2° |
| 2026-05-04 20:10 | 36.62663 | 104.04602 | 33286 ft | 466 kts | 9° |
| 2026-05-04 20:11 | 36.65836 | 104.05812 | 32154 ft | 489 kts | 15° |